createdAt,value
2018-07-02T00:00:08.331Z,66.51
2018-07-02T00:02:36.791Z,65.52
2018-07-02T00:05:05.835Z,64.61
2018-07-02T00:07:34.333Z,67.04
2018-07-02T00:10:03.039Z,66.02
2018-07-02T00:12:31.523Z,65.67
2018-07-02T00:14:59.937Z,66.71
2018-07-02T00:17:28.414Z,66.02
2018-07-02T00:19:56.858Z,65.30
2018-07-02T00:22:25.267Z,66.97
2018-07-02T00:24:53.708Z,66.80
2018-07-02T00:27:22.171Z,66.11
2018-07-02T00:29:50.628Z,64.92
2018-07-02T00:32:19.059Z,66.02
2018-07-02T00:34:47.521Z,64.96
2018-07-02T00:37:15.972Z,64.96
2018-07-02T00:39:44.439Z,63.00
2018-07-02T00:42:12.891Z,64.05
2018-07-02T00:44:41.334Z,64.33
2018-07-02T00:47:09.799Z,64.19
2018-07-02T00:49:38.257Z,64.57
2018-07-02T00:52:06.710Z,65.36
2018-07-02T00:54:35.195Z,63.47
2018-07-02T00:57:03.631Z,63.38
2018-07-02T00:59:32.254Z,64.12
2018-07-02T01:02:01.065Z,64.50
2018-07-02T01:04:29.667Z,63.15
2018-07-02T01:06:58.139Z,64.03
2018-07-02T01:09:26.732Z,64.42
2018-07-02T01:11:55.182Z,65.18
2018-07-02T01:14:23.677Z,64.62
2018-07-02T01:16:52.127Z,62.29
2018-07-02T01:19:20.568Z,62.22
2018-07-02T01:21:48.987Z,62.26
2018-07-02T01:24:17.395Z,63.39
2018-07-02T01:26:45.835Z,64.17
2018-07-02T01:29:14.269Z,63.68
2018-07-02T01:31:42.702Z,62.70
2018-07-02T01:34:11.157Z,62.64
2018-07-02T01:36:39.820Z,63.02
2018-07-02T01:39:10.125Z,60.61
2018-07-02T01:41:38.572Z,62.28
2018-07-02T01:44:07.000Z,62.17
2018-07-02T01:46:35.480Z,63.07
2018-07-02T01:49:04.099Z,63.29
2018-07-02T01:51:32.571Z,63.20
2018-07-02T01:54:01.067Z,62.50
2018-07-02T01:56:29.867Z,63.10
2018-07-02T01:58:58.348Z,63.14
2018-07-02T02:01:26.768Z,63.69
2018-07-02T02:03:55.182Z,64.90
2018-07-02T02:06:23.614Z,64.92
2018-07-02T02:08:52.091Z,63.80
2018-07-02T02:11:20.752Z,65.50
2018-07-02T02:13:49.182Z,67.48
2018-07-02T02:16:17.674Z,68.18
2018-07-02T02:18:46.121Z,67.48
2018-07-02T02:21:14.552Z,69.60
2018-07-02T02:23:43.091Z,72.11
2018-07-02T02:26:11.525Z,72.76
2018-07-02T02:28:39.976Z,74.10
2018-07-02T02:31:08.534Z,75.32
2018-07-02T02:33:36.985Z,77.30
2018-07-02T02:36:05.608Z,77.24
2018-07-02T02:38:34.054Z,79.12
2018-07-02T02:41:02.902Z,78.18
2018-07-02T02:43:31.412Z,79.54
2018-07-02T02:45:59.804Z,79.63
2018-07-02T02:48:28.448Z,81.25
2018-07-02T02:50:56.867Z,82.75
2018-07-02T02:53:25.309Z,82.86
2018-07-02T02:55:53.791Z,84.69
2018-07-02T02:58:22.232Z,89.61
2018-07-02T03:00:50.707Z,92.29
2018-07-02T03:03:19.168Z,85.36
2018-07-02T03:05:47.613Z,78.10
2018-07-02T03:08:16.063Z,82.29
2018-07-02T03:10:44.521Z,79.60
2018-07-02T03:19:57.190Z,79.28
2018-07-02T03:22:25.656Z,76.18
2018-07-02T03:24:54.089Z,76.04
2018-07-02T03:27:22.525Z,77.40
2018-07-02T03:29:50.948Z,78.39
2018-07-02T03:32:19.422Z,76.76
2018-07-02T03:34:47.927Z,78.79
2018-07-02T03:37:16.403Z,81.90
2018-07-02T03:39:44.845Z,79.61
2018-07-02T03:42:13.757Z,77.29
2018-07-02T03:44:42.212Z,77.93
2018-07-02T03:47:10.697Z,81.46
2018-07-02T03:49:39.565Z,82.18
2018-07-02T03:52:08.036Z,83.35
2018-07-02T03:54:36.520Z,80.32
2018-07-02T03:57:04.973Z,81.55
2018-07-02T03:59:33.424Z,84.25
2018-07-02T04:02:01.876Z,82.10
2018-07-02T04:04:30.484Z,80.88
2018-07-02T04:06:58.928Z,83.07
2018-07-02T04:09:27.384Z,85.37
2018-07-02T04:11:55.867Z,83.77
2018-07-02T04:14:24.274Z,81.85
2018-07-02T04:16:52.738Z,82.04
2018-07-02T04:19:21.179Z,81.31
2018-07-02T04:21:49.606Z,81.53
2018-07-02T04:24:18.071Z,82.72
2018-07-02T04:26:46.540Z,81.74
2018-07-02T04:29:15.025Z,81.75
2018-07-02T04:31:43.426Z,80.22
2018-07-02T04:34:11.900Z,78.45
2018-07-02T04:36:40.322Z,79.23
2018-07-02T04:39:09.499Z,80.75
2018-07-02T04:41:38.263Z,82.52
2018-07-02T04:44:07.543Z,83.08
2018-07-02T04:46:36.032Z,80.91
2018-07-02T04:49:04.695Z,82.67
2018-07-02T04:51:33.135Z,80.91
2018-07-02T04:54:01.564Z,81.72
2018-07-02T04:56:30.977Z,81.79
2018-07-02T04:58:59.757Z,80.53
2018-07-02T05:01:28.463Z,79.23
2018-07-02T05:03:56.862Z,80.70
2018-07-02T05:06:25.295Z,77.15
2018-07-02T05:08:53.913Z,77.74
2018-07-02T05:11:22.351Z,80.19
2018-07-02T05:13:50.744Z,79.85
2018-07-02T05:16:19.189Z,75.29
2018-07-02T05:18:47.610Z,74.46
2018-07-02T05:21:16.007Z,74.67
2018-07-02T05:23:44.758Z,75.22
2018-07-02T05:26:13.167Z,74.77
2018-07-02T05:28:41.892Z,73.08
2018-07-02T05:31:10.316Z,73.85
2018-07-02T05:33:38.742Z,72.50
2018-07-02T05:36:07.223Z,72.99
2018-07-02T05:38:35.676Z,72.26
2018-07-02T05:41:04.175Z,77.75
2018-07-02T05:43:32.602Z,71.49
2018-07-02T05:46:01.040Z,73.67
2018-07-02T05:48:29.682Z,71.81
2018-07-02T05:50:58.078Z,69.81
2018-07-02T05:53:26.899Z,70.69
2018-07-02T05:55:55.375Z,68.82
2018-07-02T05:58:24.027Z,69.13
2018-07-02T06:00:52.460Z,68.82
2018-07-02T06:03:20.924Z,67.48
2018-07-02T06:05:49.569Z,68.89
2018-07-02T06:08:17.796Z,67.77
2018-07-02T06:10:46.420Z,65.88
2018-07-02T06:13:15.044Z,65.26
2018-07-02T06:15:43.445Z,64.78
2018-07-02T06:18:11.864Z,64.22
2018-07-02T06:20:40.307Z,64.81
2018-07-02T06:23:08.728Z,67.04
2018-07-02T06:25:37.170Z,66.65
2018-07-02T06:28:05.597Z,65.97
2018-07-02T06:30:34.077Z,64.01
2018-07-02T06:33:02.527Z,63.61
2018-07-02T06:35:30.984Z,63.54
2018-07-02T06:37:59.367Z,64.65
2018-07-02T06:40:27.802Z,63.44
2018-07-02T06:42:56.210Z,61.49
2018-07-02T06:45:24.635Z,62.32
2018-07-02T06:47:53.095Z,62.27
2018-07-02T06:50:21.512Z,61.47
2018-07-02T06:52:49.963Z,60.59
2018-07-02T06:55:18.382Z,60.60
2018-07-02T06:57:47.025Z,60.20
2018-07-02T07:00:15.428Z,59.57
2018-07-02T07:02:43.827Z,60.12
2018-07-02T07:05:12.249Z,57.00
2018-07-02T07:14:24.922Z,56.71
2018-07-02T07:16:53.356Z,55.55
2018-07-02T07:19:21.776Z,53.96
2018-07-02T07:21:50.192Z,54.53
2018-07-02T07:24:18.631Z,53.95
2018-07-02T07:26:47.031Z,53.47
2018-07-02T07:29:15.481Z,53.83
2018-07-02T07:31:43.928Z,53.13
2018-07-02T07:34:12.308Z,53.03
2018-07-02T07:36:40.730Z,53.00
2018-07-02T07:39:10.725Z,51.60
2018-07-02T07:41:39.256Z,53.58
2018-07-02T07:44:07.847Z,52.33
2018-07-02T07:46:36.315Z,51.83
2018-07-02T07:49:05.194Z,52.57
2018-07-02T07:51:33.922Z,52.36
2018-07-02T07:54:02.386Z,50.65
2018-07-02T07:56:30.807Z,53.36
2018-07-02T07:58:59.222Z,52.02
2018-07-02T08:01:27.886Z,51.48
2018-07-02T08:03:56.294Z,50.64
2018-07-02T08:06:24.763Z,49.85
2018-07-02T08:08:53.509Z,50.83
2018-07-02T08:11:21.910Z,51.77
2018-07-02T08:13:50.352Z,52.44
2018-07-02T08:16:18.755Z,50.77
2018-07-02T08:18:47.223Z,48.56
2018-07-02T08:21:15.624Z,50.13
2018-07-02T08:23:44.228Z,48.00
2018-07-02T08:26:12.732Z,47.97
2018-07-02T08:28:41.139Z,49.22
2018-07-02T08:31:09.581Z,47.19
2018-07-02T08:33:38.015Z,47.90
2018-07-02T08:36:06.455Z,48.15
2018-07-02T08:38:34.878Z,47.47
2018-07-02T08:41:03.287Z,45.61
2018-07-02T08:43:31.702Z,47.19
2018-07-02T08:46:00.116Z,44.93
2018-07-02T08:48:28.560Z,47.54
2018-07-02T08:50:57.028Z,46.21
2018-07-02T08:53:26.040Z,43.62
2018-07-02T08:55:54.484Z,45.41
2018-07-02T08:58:22.993Z,44.05
2018-07-02T09:00:51.389Z,44.08
2018-07-02T09:03:19.864Z,44.12
2018-07-02T09:05:48.440Z,46.94
2018-07-02T09:08:16.863Z,42.94
2018-07-02T09:10:45.257Z,43.78
2018-07-02T09:13:13.715Z,44.31
2018-07-02T09:15:42.148Z,42.43
2018-07-02T09:18:10.659Z,44.68
2018-07-02T09:20:39.059Z,43.29
2018-07-02T09:23:07.491Z,41.24
2018-07-02T09:25:35.899Z,44.29
2018-07-02T09:28:04.443Z,44.69
2018-07-02T09:30:32.955Z,40.81
2018-07-02T09:33:01.400Z,41.15
2018-07-02T09:35:29.800Z,41.30
2018-07-02T09:37:58.239Z,41.71
2018-07-02T09:40:26.665Z,42.41
2018-07-02T09:42:55.078Z,42.93
2018-07-02T09:45:23.497Z,41.28
2018-07-02T09:47:51.887Z,42.67
2018-07-02T09:50:20.864Z,45.80
2018-07-02T09:52:49.730Z,43.79
2018-07-02T09:55:18.417Z,41.97
2018-07-02T09:57:47.207Z,40.79
2018-07-02T10:00:15.643Z,39.07
2018-07-02T10:02:44.067Z,38.18
2018-07-02T10:05:12.659Z,39.64
2018-07-02T10:07:41.092Z,37.54
2018-07-02T10:10:09.798Z,38.05
2018-07-02T10:12:38.238Z,37.16
2018-07-02T10:15:07.127Z,40.24
2018-07-02T10:17:35.868Z,39.23
2018-07-02T10:20:04.823Z,40.75
2018-07-02T10:22:33.475Z,40.15
2018-07-02T10:25:02.387Z,39.01
2018-07-02T10:27:30.830Z,39.80
2018-07-02T10:29:59.235Z,38.31
2018-07-02T10:32:27.660Z,40.55
2018-07-02T10:34:56.090Z,38.93
2018-07-02T10:37:24.550Z,37.62
2018-07-02T10:39:53.024Z,36.97
2018-07-02T10:42:21.455Z,37.81
2018-07-02T10:44:49.882Z,37.65
2018-07-02T10:47:18.297Z,37.81
2018-07-02T10:49:46.748Z,38.23
2018-07-02T10:52:15.197Z,39.83
2018-07-02T10:54:43.646Z,40.08
2018-07-02T10:57:12.039Z,41.25
2018-07-02T10:59:40.518Z,39.46
2018-07-02T11:02:08.962Z,37.03
2018-07-02T11:04:37.407Z,36.37
2018-07-02T11:07:05.884Z,37.23
2018-07-02T11:09:34.312Z,38.85
2018-07-02T11:12:02.772Z,36.98
2018-07-02T11:14:31.160Z,37.33
2018-07-02T11:16:59.776Z,36.31
2018-07-02T11:19:28.692Z,34.53
2018-07-02T11:21:57.156Z,36.72
2018-07-02T11:24:25.818Z,36.73
2018-07-02T11:26:54.242Z,37.59
2018-07-02T11:29:22.639Z,35.31
2018-07-02T11:31:51.097Z,33.59
2018-07-02T11:34:20.179Z,34.02
2018-07-02T11:36:48.769Z,33.45
2018-07-02T11:39:17.183Z,35.04
2018-07-02T11:41:45.646Z,35.43
2018-07-02T11:44:14.080Z,37.97
2018-07-02T11:46:42.644Z,32.38
2018-07-02T11:49:11.108Z,30.29
2018-07-02T11:51:39.620Z,28.40
2018-07-02T11:54:08.230Z,30.36
2018-07-02T11:56:36.640Z,29.87
2018-07-02T11:59:05.372Z,29.51
2018-07-02T12:01:33.819Z,27.39
2018-07-02T12:04:02.240Z,26.99
2018-07-02T12:06:30.738Z,25.03
2018-07-02T12:08:59.160Z,27.18
2018-07-02T12:11:27.562Z,30.03
2018-07-02T12:13:56.236Z,31.08
2018-07-02T12:16:24.776Z,30.25
2018-07-02T12:18:53.268Z,29.07
2018-07-02T12:21:21.707Z,28.59
2018-07-02T12:23:50.324Z,27.52
2018-07-02T12:26:18.751Z,29.77
2018-07-02T12:28:47.184Z,28.85
2018-07-02T12:31:15.585Z,30.47
2018-07-02T12:33:43.996Z,32.79
2018-07-02T12:36:12.531Z,25.07
2018-07-02T12:38:40.996Z,29.44
2018-07-02T12:41:09.500Z,30.65
2018-07-02T12:43:38.059Z,28.11
2018-07-02T12:46:06.523Z,26.18
2018-07-02T12:48:35.083Z,23.91
2018-07-02T12:51:03.817Z,23.71
2018-07-02T12:53:32.244Z,24.00
2018-07-02T12:56:00.855Z,23.48
2018-07-02T12:58:29.277Z,23.39
2018-07-02T13:00:57.695Z,25.99
2018-07-02T13:03:26.150Z,24.23
2018-07-02T13:05:54.606Z,27.29
2018-07-02T13:08:23.055Z,25.11
2018-07-02T13:10:51.500Z,28.98
2018-07-02T13:13:19.935Z,23.59
2018-07-02T13:15:48.444Z,23.48
2018-07-02T13:18:16.883Z,24.37
2018-07-02T13:20:45.553Z,26.30
2018-07-02T13:23:14.255Z,26.61
2018-07-02T13:25:42.706Z,24.89
2018-07-02T13:28:11.307Z,25.30
2018-07-02T13:32:09.224Z,25.95
2018-07-02T13:34:37.596Z,24.10
2018-07-02T13:37:06.208Z,27.17
2018-07-02T13:39:34.794Z,25.79
2018-07-02T13:42:03.210Z,23.91
2018-07-02T13:44:31.957Z,23.57
2018-07-02T13:47:00.440Z,22.17
2018-07-02T13:49:29.147Z,25.88
2018-07-02T13:51:57.724Z,24.11
2018-07-02T13:54:26.132Z,25.43
2018-07-02T13:56:54.600Z,24.86
2018-07-02T13:59:23.011Z,24.15
2018-07-02T14:01:51.685Z,23.72
2018-07-02T14:04:20.110Z,24.19
2018-07-02T14:06:48.607Z,24.37
2018-07-02T14:09:17.077Z,26.89
2018-07-02T14:11:45.701Z,27.37
2018-07-02T14:14:14.159Z,28.16
2018-07-02T14:16:42.571Z,27.45
2018-07-02T14:19:10.979Z,24.29
2018-07-02T14:21:39.452Z,23.68
2018-07-02T14:24:07.867Z,21.99
2018-07-02T14:26:36.299Z,22.37
2018-07-02T14:29:04.727Z,23.62
2018-07-02T14:31:33.186Z,22.37
2018-07-02T14:34:01.609Z,21.95
2018-07-02T14:36:30.126Z,27.33
2018-07-02T14:38:58.826Z,26.45
2018-07-02T14:41:27.720Z,26.17
2018-07-02T14:43:56.200Z,27.47
2018-07-02T14:46:24.659Z,26.80
2018-07-02T14:48:53.247Z,23.70
2018-07-02T14:51:21.658Z,24.09
2018-07-02T14:53:50.060Z,24.76
2018-07-02T14:56:18.512Z,25.05
2018-07-02T14:58:47.067Z,27.36
2018-07-02T15:01:15.846Z,22.46
2018-07-02T15:03:44.238Z,21.62
2018-07-02T15:06:12.695Z,22.45
2018-07-02T15:08:41.212Z,24.01
2018-07-02T15:11:09.620Z,22.64
2018-07-02T15:13:38.104Z,21.89
2018-07-02T15:16:06.515Z,25.71
2018-07-02T15:18:35.020Z,23.72
2018-07-02T15:21:03.483Z,22.98
2018-07-02T15:23:31.867Z,20.34
2018-07-02T15:26:00.503Z,21.42
2018-07-02T15:28:29.196Z,23.70
2018-07-02T15:30:57.736Z,23.52
2018-07-02T15:33:26.188Z,20.67
2018-07-02T15:35:54.609Z,20.42
2018-07-02T15:38:23.203Z,21.49
2018-07-02T15:40:51.705Z,25.20
2018-07-02T15:43:20.412Z,24.90
2018-07-02T15:45:48.849Z,24.67
2018-07-02T15:48:17.444Z,24.76
2018-07-02T15:50:45.887Z,25.79
2018-07-02T15:53:14.329Z,24.40
2018-07-02T15:55:43.148Z,26.69
2018-07-02T15:58:11.841Z,21.96
2018-07-02T16:00:40.267Z,23.27
2018-07-02T16:03:08.713Z,23.14
2018-07-02T16:05:37.115Z,20.72
2018-07-02T16:14:50.060Z,23.26
2018-07-02T16:17:18.909Z,20.53
2018-07-02T16:19:47.422Z,20.97
2018-07-02T16:22:15.821Z,20.90
2018-07-02T16:24:44.482Z,20.62
2018-07-02T16:27:12.737Z,20.70
2018-07-02T16:29:41.140Z,19.27
2018-07-02T16:32:09.644Z,22.76
2018-07-02T16:34:38.040Z,20.42
2018-07-02T16:37:06.644Z,20.48
2018-07-02T16:39:35.076Z,19.53
2018-07-02T16:42:03.492Z,20.27
2018-07-02T16:44:32.180Z,20.76
2018-07-02T16:47:00.727Z,19.33
2018-07-02T16:49:29.353Z,18.73
2018-07-02T16:51:57.799Z,19.36
2018-07-02T16:54:26.281Z,19.11
2018-07-02T16:56:55.006Z,18.67
2018-07-02T16:59:23.451Z,20.32
2018-07-02T17:01:51.951Z,18.69
2018-07-02T17:04:20.435Z,19.47
2018-07-02T17:06:48.888Z,18.03
2018-07-02T17:09:17.354Z,20.19
2018-07-02T17:11:45.917Z,22.35
2018-07-02T17:14:14.351Z,19.51
2018-07-02T17:16:43.906Z,20.35
2018-07-02T17:19:12.609Z,18.78
2018-07-02T17:21:41.477Z,20.27
2018-07-02T17:24:10.092Z,21.00
2018-07-02T17:26:38.667Z,19.47
2018-07-02T17:29:07.118Z,18.72
2018-07-02T17:31:35.535Z,17.78
2018-07-02T17:34:03.967Z,19.74
2018-07-02T17:36:32.364Z,20.19
2018-07-02T17:39:00.856Z,20.05
2018-07-02T17:41:29.348Z,20.18
2018-07-02T17:43:57.767Z,21.42
2018-07-02T17:46:26.171Z,21.08
2018-07-02T17:48:54.695Z,23.03
2018-07-02T17:51:23.137Z,21.51
2018-07-02T17:53:51.555Z,21.34
2018-07-02T17:56:19.971Z,23.35
2018-07-02T17:58:48.541Z,25.79
2018-07-02T18:01:16.951Z,23.90
2018-07-02T18:03:45.377Z,26.06
2018-07-02T18:06:13.976Z,25.50
2018-07-02T18:08:42.378Z,27.10
2018-07-02T18:11:10.803Z,27.26
2018-07-02T18:13:39.260Z,28.67
2018-07-02T18:16:07.695Z,28.21
2018-07-02T18:18:36.172Z,30.80
2018-07-02T18:21:04.669Z,31.63
2018-07-02T18:23:33.107Z,35.08
2018-07-02T18:26:01.924Z,34.12
2018-07-02T18:28:30.639Z,35.93
2018-07-02T18:30:59.060Z,35.91
2018-07-02T18:33:27.707Z,35.94
2018-07-02T18:35:56.416Z,37.14
2018-07-02T18:38:24.863Z,38.59
2018-07-02T18:40:53.495Z,39.29
2018-07-02T18:43:22.492Z,39.34
2018-07-02T18:45:51.151Z,40.76
2018-07-02T18:48:19.588Z,43.24
2018-07-02T18:50:47.991Z,44.53
2018-07-02T18:53:16.590Z,45.23
2018-07-02T18:55:45.051Z,46.36
2018-07-02T18:58:13.708Z,47.20
2018-07-02T19:00:42.186Z,47.58
2018-07-02T19:03:10.655Z,50.49
2018-07-02T19:05:39.481Z,49.55
2018-07-02T19:08:07.980Z,51.67
2018-07-02T19:10:36.427Z,50.51
2018-07-02T19:13:04.972Z,53.23
2018-07-02T19:15:33.487Z,51.45
2018-07-02T19:18:01.952Z,52.42
2018-07-02T19:20:30.416Z,52.30
2018-07-02T19:22:59.530Z,51.63
2018-07-02T19:25:27.995Z,52.21
2018-07-02T19:27:56.386Z,53.12
2018-07-02T19:30:24.857Z,52.86
2018-07-02T19:32:53.641Z,53.46
2018-07-02T19:35:22.356Z,53.54
2018-07-02T19:37:50.806Z,54.78
2018-07-02T19:40:19.579Z,53.86
2018-07-02T19:42:47.995Z,52.00
2018-07-02T19:45:16.422Z,52.02
2018-07-02T19:47:45.021Z,51.28
2018-07-02T19:50:13.461Z,49.19
2018-07-02T19:52:42.090Z,48.52
2018-07-02T19:55:10.611Z,46.78
2018-07-02T19:57:39.671Z,48.14
2018-07-02T20:00:08.164Z,48.75
2018-07-02T20:02:36.551Z,49.72
2018-07-02T20:05:05.050Z,47.86
2018-07-02T20:07:33.491Z,50.30
2018-07-02T20:10:02.123Z,49.10
2018-07-02T20:12:30.555Z,50.77
2018-07-02T20:14:58.996Z,49.88
2018-07-02T20:17:27.383Z,49.76
2018-07-02T20:19:56.143Z,49.63
2018-07-02T20:22:24.721Z,50.80
2018-07-02T20:24:53.147Z,49.97
2018-07-02T20:27:21.666Z,50.36
2018-07-02T20:29:50.099Z,52.11
2018-07-02T20:32:18.691Z,52.33
2018-07-02T20:34:47.190Z,51.69
2018-07-02T20:37:16.019Z,53.15
2018-07-02T20:39:44.491Z,53.56
2018-07-02T20:42:12.948Z,52.78
2018-07-02T20:44:41.420Z,53.64
2018-07-02T20:47:09.880Z,52.39
2018-07-02T20:49:38.895Z,54.92
2018-07-02T20:52:07.605Z,53.78
2018-07-02T20:54:36.524Z,55.54
2018-07-02T20:57:05.041Z,53.89
2018-07-02T20:59:33.454Z,54.00
2018-07-02T21:02:01.871Z,54.62
2018-07-02T21:04:30.636Z,54.47
2018-07-02T21:06:59.046Z,54.14
2018-07-02T21:09:27.515Z,54.74
2018-07-02T21:11:55.921Z,55.02
2018-07-02T21:14:24.746Z,54.95
2018-07-02T21:16:53.195Z,55.05
2018-07-02T21:19:21.811Z,55.25
2018-07-02T21:21:50.261Z,54.65
2018-07-02T21:24:18.744Z,54.63
2018-07-02T21:26:47.503Z,54.49
2018-07-02T21:29:15.947Z,55.58
2018-07-02T21:31:44.363Z,56.50
2018-07-02T21:34:12.860Z,56.48
2018-07-02T21:36:41.441Z,56.46
2018-07-02T21:39:12.484Z,57.48
2018-07-02T21:41:41.531Z,57.51
2018-07-02T21:44:09.967Z,58.66
2018-07-02T21:46:38.447Z,58.67
2018-07-02T21:49:06.832Z,59.75
2018-07-02T21:51:35.325Z,60.18
2018-07-02T21:54:03.756Z,60.28
2018-07-02T21:56:32.866Z,60.37
2018-07-02T21:59:01.291Z,61.50
2018-07-02T22:01:29.890Z,62.16
2018-07-02T22:03:58.595Z,62.56
2018-07-02T22:06:26.994Z,62.00
2018-07-02T22:08:55.663Z,61.37
2018-07-02T22:11:24.096Z,62.64
2018-07-02T22:13:52.560Z,61.94
2018-07-02T22:16:21.192Z,61.16
2018-07-02T22:18:49.643Z,61.79
2018-07-02T22:21:18.307Z,62.43
2018-07-02T22:23:46.751Z,63.23
2018-07-02T22:26:15.156Z,64.49
2018-07-02T22:28:43.610Z,65.35
2018-07-02T22:31:12.341Z,65.54
2018-07-02T22:33:40.776Z,65.95
2018-07-02T22:36:09.206Z,63.43
2018-07-02T22:38:37.627Z,65.09
2018-07-02T22:41:06.310Z,66.11
2018-07-02T22:43:34.774Z,66.47
2018-07-02T22:46:03.240Z,64.48
2018-07-02T22:48:31.720Z,65.57
2018-07-02T22:51:00.295Z,65.98
2018-07-02T22:53:28.751Z,66.83
2018-07-02T22:56:03.290Z,67.08
2018-07-02T22:58:31.736Z,69.07
2018-07-02T23:01:01.127Z,69.76
2018-07-02T23:03:29.535Z,70.95
2018-07-02T23:05:58.225Z,71.67
2018-07-02T23:08:27.527Z,72.80
2018-07-02T23:10:56.619Z,73.75
2018-07-02T23:13:25.764Z,74.77
2018-07-02T23:15:58.323Z,74.53
2018-07-02T23:18:28.435Z,75.85
2018-07-02T23:20:56.903Z,76.21
2018-07-02T23:23:25.306Z,75.96
2018-07-02T23:25:53.716Z,77.22
2018-07-02T23:28:22.149Z,76.65
2018-07-02T23:30:50.653Z,77.03
2018-07-02T23:33:19.070Z,77.99
2018-07-02T23:35:47.718Z,78.24
2018-07-02T23:38:16.163Z,78.46
2018-07-02T23:40:44.602Z,78.77
2018-07-02T23:43:13.059Z,79.31
2018-07-02T23:45:41.471Z,81.38
2018-07-02T23:48:09.989Z,81.24
2018-07-02T23:50:38.451Z,81.86
2018-07-02T23:53:07.040Z,81.09
2018-07-02T23:55:35.748Z,84.95
2018-07-02T23:58:04.173Z,86.49
